sensor_id;sensor_type;location;lat;lon;timestamp;P1;durP1;ratioP1;P2;durP2;ratioP2
19903;SDS011;10114;50.970;4.962;2023-01-06T00:02:02;5.55;;;1.52;;
19903;SDS011;10114;50.970;4.962;2023-01-06T00:04:28;8.32;;;1.50;;
19903;SDS011;10114;50.970;4.962;2023-01-06T00:06:54;7.30;;;1.50;;
19903;SDS011;10114;50.970;4.962;2023-01-06T00:09:20;5.70;;;1.38;;
19903;SDS011;10114;50.970;4.962;2023-01-06T00:11:46;5.53;;;1.30;;
19903;SDS011;10114;50.970;4.962;2023-01-06T00:14:12;6.82;;;1.50;;
19903;SDS011;10114;50.970;4.962;2023-01-06T00:16:38;7.93;;;1.73;;
19903;SDS011;10114;50.970;4.962;2023-01-06T00:19:04;7.60;;;1.52;;
19903;SDS011;10114;50.970;4.962;2023-01-06T00:21:30;6.63;;;1.67;;
19903;SDS011;10114;50.970;4.962;2023-01-06T00:23:56;8.93;;;1.48;;
19903;SDS011;10114;50.970;4.962;2023-01-06T00:26:22;5.30;;;1.63;;
19903;SDS011;10114;50.970;4.962;2023-01-06T00:28:51;5.20;;;1.35;;
19903;SDS011;10114;50.970;4.962;2023-01-06T00:31:17;6.90;;;1.45;;
19903;SDS011;10114;50.970;4.962;2023-01-06T00:33:43;8.13;;;1.40;;
19903;SDS011;10114;50.970;4.962;2023-01-06T00:36:10;6.43;;;1.17;;
19903;SDS011;10114;50.970;4.962;2023-01-06T00:38:37;8.77;;;1.80;;
19903;SDS011;10114;50.970;4.962;2023-01-06T00:41:04;5.95;;;1.90;;
19903;SDS011;10114;50.970;4.962;2023-01-06T00:43:50;3.50;;;0.95;;
19903;SDS011;10114;50.970;4.962;2023-01-06T00:46:16;7.47;;;1.20;;
19903;SDS011;10114;50.970;4.962;2023-01-06T00:48:42;4.72;;;1.35;;
19903;SDS011;10114;50.970;4.962;2023-01-06T00:51:08;6.13;;;1.45;;
19903;SDS011;10114;50.970;4.962;2023-01-06T00:53:34;3.75;;;1.08;;
19903;SDS011;10114;50.970;4.962;2023-01-06T00:56:00;3.03;;;0.93;;
19903;SDS011;10114;50.970;4.962;2023-01-06T00:58:30;5.40;;;1.10;;
19903;SDS011;10114;50.970;4.962;2023-01-06T01:00:56;4.82;;;1.17;;
19903;SDS011;10114;50.970;4.962;2023-01-06T01:03:22;7.63;;;1.70;;
19903;SDS011;10114;50.970;4.962;2023-01-06T01:05:48;6.57;;;1.25;;
19903;SDS011;10114;50.970;4.962;2023-01-06T01:08:14;6.45;;;1.05;;
19903;SDS011;10114;50.970;4.962;2023-01-06T01:10:40;9.77;;;1.52;;
19903;SDS011;10114;50.970;4.962;2023-01-06T01:13:06;3.05;;;0.88;;
19903;SDS011;10114;50.970;4.962;2023-01-06T01:15:32;5.18;;;1.23;;
19903;SDS011;10114;50.970;4.962;2023-01-06T01:17:58;7.05;;;0.98;;
19903;SDS011;10114;50.970;4.962;2023-01-06T01:20:24;4.95;;;0.93;;
19903;SDS011;10114;50.970;4.962;2023-01-06T01:22:50;5.97;;;1.23;;
19903;SDS011;10114;50.970;4.962;2023-01-06T01:25:16;7.50;;;1.38;;
19903;SDS011;10114;50.970;4.962;2023-01-06T01:27:42;5.85;;;0.90;;
19903;SDS011;10114;50.970;4.962;2023-01-06T01:30:08;3.58;;;0.80;;
19903;SDS011;10114;50.970;4.962;2023-01-06T01:32:34;5.18;;;1.30;;
19903;SDS011;10114;50.970;4.962;2023-01-06T01:35:00;4.88;;;0.98;;
19903;SDS011;10114;50.970;4.962;2023-01-06T01:37:26;4.68;;;1.15;;
19903;SDS011;10114;50.970;4.962;2023-01-06T01:39:55;7.72;;;1.20;;
19903;SDS011;10114;50.970;4.962;2023-01-06T01:42:21;4.00;;;1.00;;
19903;SDS011;10114;50.970;4.962;2023-01-06T01:47:41;5.05;;;1.17;;
19903;SDS011;10114;50.970;4.962;2023-01-06T01:52:52;7.03;;;1.00;;
19903;SDS011;10114;50.970;4.962;2023-01-06T01:55:19;6.25;;;1.05;;
19903;SDS011;10114;50.970;4.962;2023-01-06T01:57:59;13.43;;;1.33;;
19903;SDS011;10114;50.970;4.962;2023-01-06T02:00:26;7.63;;;1.13;;
19903;SDS011;10114;50.970;4.962;2023-01-06T02:02:52;7.20;;;1.23;;
19903;SDS011;10114;50.970;4.962;2023-01-06T02:05:19;6.97;;;1.30;;
19903;SDS011;10114;50.970;4.962;2023-01-06T02:07:46;6.57;;;1.33;;
19903;SDS011;10114;50.970;4.962;2023-01-06T02:10:13;4.22;;;1.15;;
19903;SDS011;10114;50.970;4.962;2023-01-06T02:12:40;8.23;;;1.50;;
19903;SDS011;10114;50.970;4.962;2023-01-06T02:15:29;5.38;;;1.10;;
19903;SDS011;10114;50.970;4.962;2023-01-06T02:20:57;5.32;;;1.10;;
19903;SDS011;10114;50.970;4.962;2023-01-06T02:23:31;4.05;;;1.35;;
19903;SDS011;10114;50.970;4.962;2023-01-06T02:34:02;4.45;;;1.05;;
19903;SDS011;10114;50.970;4.962;2023-01-06T02:36:44;7.43;;;1.38;;
19903;SDS011;10114;50.970;4.962;2023-01-06T02:41:46;6.60;;;1.17;;
19903;SDS011;10114;50.970;4.962;2023-01-06T02:44:20;5.70;;;1.38;;
19903;SDS011;10114;50.970;4.962;2023-01-06T02:46:57;4.88;;;1.10;;
19903;SDS011;10114;50.970;4.962;2023-01-06T02:57:15;5.70;;;0.80;;
19903;SDS011;10114;50.970;4.962;2023-01-06T02:59:45;1.67;;;0.73;;
19903;SDS011;10114;50.970;4.962;2023-01-06T03:02:13;4.78;;;0.90;;
19903;SDS011;10114;50.970;4.962;2023-01-06T03:04:40;3.47;;;0.80;;
19903;SDS011;10114;50.970;4.962;2023-01-06T03:07:08;4.80;;;1.00;;
19903;SDS011;10114;50.970;4.962;2023-01-06T03:09:35;2.13;;;1.02;;
19903;SDS011;10114;50.970;4.962;2023-01-06T03:12:05;2.95;;;1.00;;
19903;SDS011;10114;50.970;4.962;2023-01-06T03:14:37;4.40;;;0.90;;
19903;SDS011;10114;50.970;4.962;2023-01-06T03:17:03;4.80;;;0.80;;
19903;SDS011;10114;50.970;4.962;2023-01-06T03:19:30;8.63;;;1.10;;
19903;SDS011;10114;50.970;4.962;2023-01-06T03:21:57;2.22;;;0.80;;
19903;SDS011;10114;50.970;4.962;2023-01-06T03:24:24;3.47;;;0.98;;
19903;SDS011;10114;50.970;4.962;2023-01-06T03:26:50;3.78;;;0.82;;
19903;SDS011;10114;50.970;4.962;2023-01-06T03:29:17;4.43;;;1.27;;
19903;SDS011;10114;50.970;4.962;2023-01-06T03:39:33;3.08;;;0.82;;
19903;SDS011;10114;50.970;4.962;2023-01-06T03:44:52;2.63;;;0.95;;
19903;SDS011;10114;50.970;4.962;2023-01-06T03:47:26;1.98;;;0.63;;
19903;SDS011;10114;50.970;4.962;2023-01-06T03:50:05;1.45;;;0.70;;
19903;SDS011;10114;50.970;4.962;2023-01-06T03:52:33;4.38;;;0.95;;
19903;SDS011;10114;50.970;4.962;2023-01-06T03:55:03;3.50;;;0.80;;
19903;SDS011;10114;50.970;4.962;2023-01-06T03:57:31;2.00;;;0.77;;
19903;SDS011;10114;50.970;4.962;2023-01-06T04:02:47;4.55;;;0.98;;
19903;SDS011;10114;50.970;4.962;2023-01-06T04:05:18;3.05;;;0.88;;
19903;SDS011;10114;50.970;4.962;2023-01-06T04:07:45;6.10;;;1.10;;
19903;SDS011;10114;50.970;4.962;2023-01-06T04:10:11;5.38;;;1.20;;
19903;SDS011;10114;50.970;4.962;2023-01-06T04:12:38;6.57;;;0.90;;
19903;SDS011;10114;50.970;4.962;2023-01-06T04:17:33;3.25;;;0.80;;
19903;SDS011;10114;50.970;4.962;2023-01-06T04:20:00;7.88;;;0.98;;
19903;SDS011;10114;50.970;4.962;2023-01-06T04:22:26;2.78;;;0.90;;
19903;SDS011;10114;50.970;4.962;2023-01-06T04:24:52;3.90;;;0.80;;
19903;SDS011;10114;50.970;4.962;2023-01-06T04:27:18;1.55;;;0.77;;
19903;SDS011;10114;50.970;4.962;2023-01-06T04:29:44;2.95;;;0.90;;
19903;SDS011;10114;50.970;4.962;2023-01-06T04:32:10;6.13;;;0.90;;
19903;SDS011;10114;50.970;4.962;2023-01-06T04:34:36;3.95;;;1.13;;
19903;SDS011;10114;50.970;4.962;2023-01-06T04:37:02;2.83;;;0.85;;
19903;SDS011;10114;50.970;4.962;2023-01-06T04:39:28;3.55;;;0.88;;
19903;SDS011;10114;50.970;4.962;2023-01-06T04:41:54;4.75;;;1.10;;
19903;SDS011;10114;50.970;4.962;2023-01-06T04:44:20;2.95;;;1.00;;
19903;SDS011;10114;50.970;4.962;2023-01-06T04:46:47;5.47;;;1.25;;
19903;SDS011;10114;50.970;4.962;2023-01-06T04:49:13;5.65;;;1.45;;
19903;SDS011;10114;50.970;4.962;2023-01-06T04:51:39;6.43;;;1.00;;
19903;SDS011;10114;50.970;4.962;2023-01-06T04:54:05;9.18;;;1.70;;
19903;SDS011;10114;50.970;4.962;2023-01-06T04:56:31;8.32;;;1.30;;
19903;SDS011;10114;50.970;4.962;2023-01-06T04:58:57;4.85;;;1.00;;
19903;SDS011;10114;50.970;4.962;2023-01-06T05:01:24;2.08;;;0.82;;
19903;SDS011;10114;50.970;4.962;2023-01-06T05:03:50;3.40;;;1.27;;
19903;SDS011;10114;50.970;4.962;2023-01-06T05:06:16;5.00;;;1.42;;
19903;SDS011;10114;50.970;4.962;2023-01-06T05:08:43;3.97;;;0.98;;
19903;SDS011;10114;50.970;4.962;2023-01-06T05:11:10;7.10;;;1.00;;
19903;SDS011;10114;50.970;4.962;2023-01-06T05:13:37;2.55;;;1.17;;
19903;SDS011;10114;50.970;4.962;2023-01-06T05:16:07;4.82;;;1.00;;
19903;SDS011;10114;50.970;4.962;2023-01-06T05:18:33;7.93;;;1.13;;
19903;SDS011;10114;50.970;4.962;2023-01-06T05:20:59;2.78;;;0.95;;
19903;SDS011;10114;50.970;4.962;2023-01-06T05:23:25;5.05;;;1.02;;
19903;SDS011;10114;50.970;4.962;2023-01-06T05:25:51;2.42;;;0.80;;
19903;SDS011;10114;50.970;4.962;2023-01-06T05:28:18;4.28;;;0.82;;
19903;SDS011;10114;50.970;4.962;2023-01-06T05:30:44;3.47;;;0.95;;
19903;SDS011;10114;50.970;4.962;2023-01-06T05:33:10;2.83;;;0.82;;
19903;SDS011;10114;50.970;4.962;2023-01-06T05:35:36;2.90;;;0.88;;
19903;SDS011;10114;50.970;4.962;2023-01-06T05:38:02;3.55;;;1.00;;
19903;SDS011;10114;50.970;4.962;2023-01-06T05:40:28;4.63;;;1.10;;
19903;SDS011;10114;50.970;4.962;2023-01-06T05:42:55;3.97;;;1.13;;
19903;SDS011;10114;50.970;4.962;2023-01-06T05:45:21;3.05;;;1.02;;
19903;SDS011;10114;50.970;4.962;2023-01-06T05:47:48;2.88;;;1.02;;
19903;SDS011;10114;50.970;4.962;2023-01-06T05:50:14;7.88;;;1.38;;
19903;SDS011;10114;50.970;4.962;2023-01-06T05:52:40;3.45;;;0.95;;
19903;SDS011;10114;50.970;4.962;2023-01-06T05:55:06;2.83;;;1.40;;
19903;SDS011;10114;50.970;4.962;2023-01-06T05:57:32;3.85;;;1.00;;
19903;SDS011;10114;50.970;4.962;2023-01-06T05:59:58;4.63;;;1.42;;
19903;SDS011;10114;50.970;4.962;2023-01-06T06:02:24;3.67;;;1.45;;
19903;SDS011;10114;50.970;4.962;2023-01-06T06:04:50;4.60;;;1.63;;
19903;SDS011;10114;50.970;4.962;2023-01-06T06:07:16;4.50;;;1.40;;
19903;SDS011;10114;50.970;4.962;2023-01-06T06:09:42;4.07;;;1.27;;
19903;SDS011;10114;50.970;4.962;2023-01-06T06:12:08;3.75;;;1.13;;
19903;SDS011;10114;50.970;4.962;2023-01-06T06:14:35;4.00;;;1.17;;
19903;SDS011;10114;50.970;4.962;2023-01-06T06:17:01;4.68;;;1.20;;
19903;SDS011;10114;50.970;4.962;2023-01-06T06:19:27;3.33;;;1.15;;
19903;SDS011;10114;50.970;4.962;2023-01-06T06:21:53;5.65;;;1.38;;
19903;SDS011;10114;50.970;4.962;2023-01-06T06:24:20;4.30;;;1.48;;
19903;SDS011;10114;50.970;4.962;2023-01-06T06:26:46;3.03;;;1.13;;
19903;SDS011;10114;50.970;4.962;2023-01-06T06:29:12;2.22;;;0.98;;
19903;SDS011;10114;50.970;4.962;2023-01-06T06:31:38;3.30;;;0.90;;
19903;SDS011;10114;50.970;4.962;2023-01-06T06:34:04;3.47;;;1.10;;
19903;SDS011;10114;50.970;4.962;2023-01-06T06:36:30;3.58;;;1.10;;
19903;SDS011;10114;50.970;4.962;2023-01-06T06:38:57;6.22;;;1.05;;
19903;SDS011;10114;50.970;4.962;2023-01-06T06:41:23;4.38;;;1.40;;
19903;SDS011;10114;50.970;4.962;2023-01-06T06:43:50;3.83;;;1.00;;
19903;SDS011;10114;50.970;4.962;2023-01-06T06:46:16;2.28;;;0.90;;
19903;SDS011;10114;50.970;4.962;2023-01-06T06:48:42;2.05;;;0.80;;
19903;SDS011;10114;50.970;4.962;2023-01-06T06:51:10;6.22;;;1.10;;
19903;SDS011;10114;50.970;4.962;2023-01-06T06:53:36;6.65;;;1.17;;
19903;SDS011;10114;50.970;4.962;2023-01-06T06:56:06;2.05;;;0.90;;
19903;SDS011;10114;50.970;4.962;2023-01-06T06:58:32;3.13;;;0.98;;
19903;SDS011;10114;50.970;4.962;2023-01-06T07:01:01;3.13;;;0.82;;
19903;SDS011;10114;50.970;4.962;2023-01-06T07:03:27;5.40;;;1.02;;
19903;SDS011;10114;50.970;4.962;2023-01-06T07:05:54;2.35;;;0.82;;
19903;SDS011;10114;50.970;4.962;2023-01-06T07:08:20;1.42;;;0.60;;
19903;SDS011;10114;50.970;4.962;2023-01-06T07:10:46;2.50;;;0.90;;
19903;SDS011;10114;50.970;4.962;2023-01-06T07:13:12;4.78;;;0.90;;
19903;SDS011;10114;50.970;4.962;2023-01-06T07:15:38;2.78;;;0.80;;
19903;SDS011;10114;50.970;4.962;2023-01-06T07:18:04;4.55;;;0.90;;
19903;SDS011;10114;50.970;4.962;2023-01-06T07:20:31;3.20;;;0.90;;
19903;SDS011;10114;50.970;4.962;2023-01-06T07:22:57;1.42;;;0.70;;
19903;SDS011;10114;50.970;4.962;2023-01-06T07:25:23;2.83;;;0.80;;
19903;SDS011;10114;50.970;4.962;2023-01-06T07:27:57;4.65;;;1.50;;
19903;SDS011;10114;50.970;4.962;2023-01-06T07:30:24;2.78;;;0.90;;
19903;SDS011;10114;50.970;4.962;2023-01-06T07:32:50;3.85;;;0.70;;
19903;SDS011;10114;50.970;4.962;2023-01-06T07:35:17;4.78;;;1.10;;
19903;SDS011;10114;50.970;4.962;2023-01-06T07:37:43;3.42;;;0.93;;
19903;SDS011;10114;50.970;4.962;2023-01-06T07:40:09;3.58;;;0.80;;
19903;SDS011;10114;50.970;4.962;2023-01-06T07:42:35;1.98;;;0.80;;
19903;SDS011;10114;50.970;4.962;2023-01-06T07:45:02;2.30;;;0.63;;
19903;SDS011;10114;50.970;4.962;2023-01-06T07:47:28;3.72;;;1.02;;
19903;SDS011;10114;50.970;4.962;2023-01-06T07:49:54;4.13;;;0.60;;
19903;SDS011;10114;50.970;4.962;2023-01-06T07:52:20;2.13;;;0.77;;
19903;SDS011;10114;50.970;4.962;2023-01-06T07:54:46;2.45;;;0.95;;
19903;SDS011;10114;50.970;4.962;2023-01-06T07:57:13;5.03;;;1.10;;
19903;SDS011;10114;50.970;4.962;2023-01-06T07:59:39;1.92;;;0.75;;
19903;SDS011;10114;50.970;4.962;2023-01-06T08:02:05;1.35;;;0.70;;
19903;SDS011;10114;50.970;4.962;2023-01-06T08:04:33;1.10;;;0.60;;
19903;SDS011;10114;50.970;4.962;2023-01-06T08:06:59;2.00;;;0.70;;
19903;SDS011;10114;50.970;4.962;2023-01-06T08:09:25;3.83;;;1.00;;
19903;SDS011;10114;50.970;4.962;2023-01-06T08:11:51;2.03;;;0.80;;
19903;SDS011;10114;50.970;4.962;2023-01-06T08:14:18;4.63;;;1.20;;
19903;SDS011;10114;50.970;4.962;2023-01-06T08:16:45;2.85;;;1.08;;
19903;SDS011;10114;50.970;4.962;2023-01-06T08:19:11;2.13;;;1.00;;
19903;SDS011;10114;50.970;4.962;2023-01-06T08:21:37;4.15;;;1.30;;
19903;SDS011;10114;50.970;4.962;2023-01-06T08:24:03;3.70;;;1.33;;
19903;SDS011;10114;50.970;4.962;2023-01-06T08:26:29;2.85;;;1.13;;
19903;SDS011;10114;50.970;4.962;2023-01-06T08:28:55;2.60;;;1.10;;
19903;SDS011;10114;50.970;4.962;2023-01-06T08:31:22;2.90;;;1.05;;
19903;SDS011;10114;50.970;4.962;2023-01-06T08:33:48;3.85;;;1.30;;
19903;SDS011;10114;50.970;4.962;2023-01-06T08:36:16;3.42;;;0.98;;
19903;SDS011;10114;50.970;4.962;2023-01-06T08:38:43;3.15;;;1.30;;
19903;SDS011;10114;50.970;4.962;2023-01-06T08:41:09;2.97;;;1.25;;
19903;SDS011;10114;50.970;4.962;2023-01-06T08:43:36;2.22;;;1.00;;
19903;SDS011;10114;50.970;4.962;2023-01-06T08:46:04;4.63;;;1.25;;
19903;SDS011;10114;50.970;4.962;2023-01-06T08:48:31;3.63;;;1.05;;
19903;SDS011;10114;50.970;4.962;2023-01-06T08:51:01;5.55;;;1.48;;
19903;SDS011;10114;50.970;4.962;2023-01-06T08:53:27;4.68;;;2.10;;
19903;SDS011;10114;50.970;4.962;2023-01-06T08:55:53;6.47;;;2.17;;
19903;SDS011;10114;50.970;4.962;2023-01-06T08:58:19;6.80;;;2.85;;
19903;SDS011;10114;50.970;4.962;2023-01-06T09:00:45;6.38;;;2.00;;
19903;SDS011;10114;50.970;4.962;2023-01-06T09:03:11;4.97;;;1.50;;
19903;SDS011;10114;50.970;4.962;2023-01-06T09:05:37;3.20;;;1.13;;
19903;SDS011;10114;50.970;4.962;2023-01-06T09:08:04;2.38;;;1.10;;
19903;SDS011;10114;50.970;4.962;2023-01-06T09:10:30;1.52;;;0.80;;
19903;SDS011;10114;50.970;4.962;2023-01-06T09:12:56;3.45;;;1.02;;
19903;SDS011;10114;50.970;4.962;2023-01-06T09:15:22;4.05;;;1.42;;
19903;SDS011;10114;50.970;4.962;2023-01-06T09:17:48;3.53;;;1.10;;
19903;SDS011;10114;50.970;4.962;2023-01-06T09:20:14;3.42;;;0.98;;
19903;SDS011;10114;50.970;4.962;2023-01-06T09:22:40;4.55;;;1.27;;
19903;SDS011;10114;50.970;4.962;2023-01-06T09:25:06;5.43;;;1.80;;
19903;SDS011;10114;50.970;4.962;2023-01-06T09:27:32;6.03;;;1.75;;
19903;SDS011;10114;50.970;4.962;2023-01-06T09:29:58;2.53;;;1.10;;
19903;SDS011;10114;50.970;4.962;2023-01-06T09:32:24;3.72;;;1.45;;
19903;SDS011;10114;50.970;4.962;2023-01-06T09:34:50;4.35;;;1.20;;
19903;SDS011;10114;50.970;4.962;2023-01-06T09:37:16;4.10;;;1.13;;
19903;SDS011;10114;50.970;4.962;2023-01-06T09:39:42;6.47;;;1.30;;
19903;SDS011;10114;50.970;4.962;2023-01-06T09:45:05;4.80;;;1.90;;
19903;SDS011;10114;50.970;4.962;2023-01-06T09:47:35;3.72;;;1.30;;
19903;SDS011;10114;50.970;4.962;2023-01-06T09:50:13;2.65;;;1.15;;
19903;SDS011;10114;50.970;4.962;2023-01-06T09:52:51;3.53;;;0.98;;
19903;SDS011;10114;50.970;4.962;2023-01-06T09:55:19;2.38;;;0.90;;
19903;SDS011;10114;50.970;4.962;2023-01-06T09:57:51;2.13;;;0.80;;
19903;SDS011;10114;50.970;4.962;2023-01-06T10:03:04;3.38;;;0.90;;
19903;SDS011;10114;50.970;4.962;2023-01-06T10:05:37;3.08;;;0.90;;
19903;SDS011;10114;50.970;4.962;2023-01-06T10:15:47;1.70;;;0.85;;
19903;SDS011;10114;50.970;4.962;2023-01-06T10:25:43;2.15;;;0.90;;
19903;SDS011;10114;50.970;4.962;2023-01-06T10:30:54;3.10;;;1.27;;
19903;SDS011;10114;50.970;4.962;2023-01-06T10:35:48;3.85;;;1.58;;
19903;SDS011;10114;50.970;4.962;2023-01-06T10:38:14;2.55;;;1.30;;
19903;SDS011;10114;50.970;4.962;2023-01-06T10:40:40;3.13;;;1.50;;
19903;SDS011;10114;50.970;4.962;2023-01-06T10:43:10;4.50;;;2.22;;
19903;SDS011;10114;50.970;4.962;2023-01-06T10:48:03;5.93;;;3.05;;
19903;SDS011;10114;50.970;4.962;2023-01-06T10:50:30;3.67;;;1.98;;
19903;SDS011;10114;50.970;4.962;2023-01-06T10:52:57;4.35;;;1.65;;
19903;SDS011;10114;50.970;4.962;2023-01-06T10:57:50;4.25;;;1.80;;
19903;SDS011;10114;50.970;4.962;2023-01-06T11:02:47;5.03;;;1.70;;
19903;SDS011;10114;50.970;4.962;2023-01-06T11:05:14;5.15;;;2.45;;
19903;SDS011;10114;50.970;4.962;2023-01-06T11:07:47;3.28;;;1.67;;
19903;SDS011;10114;50.970;4.962;2023-01-06T11:13:28;4.53;;;2.30;;
19903;SDS011;10114;50.970;4.962;2023-01-06T11:15:55;4.80;;;2.20;;
19903;SDS011;10114;50.970;4.962;2023-01-06T11:18:23;4.03;;;2.20;;
19903;SDS011;10114;50.970;4.962;2023-01-06T11:23:29;4.60;;;2.42;;
19903;SDS011;10114;50.970;4.962;2023-01-06T11:25:59;5.55;;;3.03;;
19903;SDS011;10114;50.970;4.962;2023-01-06T11:28:26;5.32;;;2.30;;
19903;SDS011;10114;50.970;4.962;2023-01-06T11:31:02;5.68;;;2.10;;
19903;SDS011;10114;50.970;4.962;2023-01-06T11:33:30;4.53;;;1.92;;
19903;SDS011;10114;50.970;4.962;2023-01-06T11:35:56;5.57;;;1.98;;
19903;SDS011;10114;50.970;4.962;2023-01-06T11:38:23;5.93;;;2.13;;
19903;SDS011;10114;50.970;4.962;2023-01-06T11:40:50;3.20;;;1.50;;
19903;SDS011;10114;50.970;4.962;2023-01-06T11:43:19;6.65;;;1.35;;
19903;SDS011;10114;50.970;4.962;2023-01-06T11:46:02;3.47;;;1.17;;
19903;SDS011;10114;50.970;4.962;2023-01-06T11:50:56;3.88;;;1.48;;
19903;SDS011;10114;50.970;4.962;2023-01-06T11:53:23;5.38;;;1.05;;
19903;SDS011;10114;50.970;4.962;2023-01-06T11:56:06;3.50;;;1.50;;
19903;SDS011;10114;50.970;4.962;2023-01-06T11:58:35;6.10;;;1.83;;
19903;SDS011;10114;50.970;4.962;2023-01-06T12:03:33;4.60;;;1.90;;
19903;SDS011;10114;50.970;4.962;2023-01-06T12:11:20;4.20;;;1.50;;
19903;SDS011;10114;50.970;4.962;2023-01-06T12:13:44;4.20;;;1.58;;
19903;SDS011;10114;50.970;4.962;2023-01-06T12:16:14;6.80;;;3.08;;
19903;SDS011;10114;50.970;4.962;2023-01-06T12:18:43;4.28;;;1.52;;
19903;SDS011;10114;50.970;4.962;2023-01-06T12:21:11;2.35;;;1.10;;
19903;SDS011;10114;50.970;4.962;2023-01-06T12:23:39;3.20;;;1.42;;
19903;SDS011;10114;50.970;4.962;2023-01-06T12:26:14;3.30;;;1.50;;
19903;SDS011;10114;50.970;4.962;2023-01-06T12:28:41;3.28;;;1.25;;
19903;SDS011;10114;50.970;4.962;2023-01-06T12:36:02;3.75;;;1.80;;
19903;SDS011;10114;50.970;4.962;2023-01-06T12:41:01;3.95;;;2.17;;
19903;SDS011;10114;50.970;4.962;2023-01-06T12:43:28;3.90;;;1.55;;
19903;SDS011;10114;50.970;4.962;2023-01-06T12:46:18;2.38;;;1.20;;
19903;SDS011;10114;50.970;4.962;2023-01-06T12:49:02;3.08;;;1.35;;
19903;SDS011;10114;50.970;4.962;2023-01-06T12:51:32;3.17;;;1.50;;
19903;SDS011;10114;50.970;4.962;2023-01-06T13:01:49;2.65;;;1.15;;
19903;SDS011;10114;50.970;4.962;2023-01-06T13:20:20;3.95;;;1.83;;
19903;SDS011;10114;50.970;4.962;2023-01-06T13:23:08;5.78;;;3.10;;
19903;SDS011;10114;50.970;4.962;2023-01-06T13:36:17;5.00;;;2.40;;
19903;SDS011;10114;50.970;4.962;2023-01-06T13:41:14;5.72;;;2.55;;
19903;SDS011;10114;50.970;4.962;2023-01-06T13:43:41;6.25;;;2.55;;
19903;SDS011;10114;50.970;4.962;2023-01-06T13:46:08;3.05;;;1.67;;
19903;SDS011;10114;50.970;4.962;2023-01-06T13:48:37;4.93;;;2.10;;
19903;SDS011;10114;50.970;4.962;2023-01-06T13:51:06;5.35;;;2.42;;
19903;SDS011;10114;50.970;4.962;2023-01-06T13:53:36;4.50;;;1.80;;
19903;SDS011;10114;50.970;4.962;2023-01-06T13:58:41;4.43;;;1.75;;
19903;SDS011;10114;50.970;4.962;2023-01-06T14:03:43;6.20;;;2.75;;
19903;SDS011;10114;50.970;4.962;2023-01-06T14:06:10;4.20;;;1.92;;
19903;SDS011;10114;50.970;4.962;2023-01-06T14:08:37;6.47;;;2.00;;
19903;SDS011;10114;50.970;4.962;2023-01-06T14:13:50;5.65;;;1.90;;
19903;SDS011;10114;50.970;4.962;2023-01-06T14:16:17;4.53;;;2.17;;
19903;SDS011;10114;50.970;4.962;2023-01-06T14:23:58;7.43;;;3.40;;
19903;SDS011;10114;50.970;4.962;2023-01-06T14:31:54;7.97;;;2.85;;
19903;SDS011;10114;50.970;4.962;2023-01-06T14:34:20;6.57;;;2.90;;
19903;SDS011;10114;50.970;4.962;2023-01-06T14:36:47;6.03;;;2.45;;
19903;SDS011;10114;50.970;4.962;2023-01-06T14:39:18;6.30;;;3.15;;
19903;SDS011;10114;50.970;4.962;2023-01-06T14:41:53;8.07;;;3.22;;
19903;SDS011;10114;50.970;4.962;2023-01-06T14:44:25;5.13;;;2.45;;
19903;SDS011;10114;50.970;4.962;2023-01-06T14:49:47;5.90;;;2.45;;
19903;SDS011;10114;50.970;4.962;2023-01-06T14:52:28;7.22;;;2.78;;
19903;SDS011;10114;50.970;4.962;2023-01-06T14:54:56;4.22;;;2.05;;
19903;SDS011;10114;50.970;4.962;2023-01-06T14:57:24;4.90;;;2.30;;
19903;SDS011;10114;50.970;4.962;2023-01-06T15:02:35;4.70;;;2.25;;
19903;SDS011;10114;50.970;4.962;2023-01-06T15:05:02;5.13;;;2.40;;
19903;SDS011;10114;50.970;4.962;2023-01-06T15:07:28;4.22;;;1.95;;
19903;SDS011;10114;50.970;4.962;2023-01-06T15:10:07;6.30;;;2.08;;
19903;SDS011;10114;50.970;4.962;2023-01-06T15:12:42;4.10;;;2.13;;
19903;SDS011;10114;50.970;4.962;2023-01-06T15:17:47;4.72;;;1.77;;
19903;SDS011;10114;50.970;4.962;2023-01-06T15:20:13;3.95;;;2.00;;
19903;SDS011;10114;50.970;4.962;2023-01-06T15:22:39;3.45;;;2.05;;
19903;SDS011;10114;50.970;4.962;2023-01-06T15:25:14;5.15;;;2.17;;
19903;SDS011;10114;50.970;4.962;2023-01-06T15:27:45;5.32;;;2.33;;
19903;SDS011;10114;50.970;4.962;2023-01-06T15:30:17;4.03;;;1.88;;
19903;SDS011;10114;50.970;4.962;2023-01-06T15:32:44;4.30;;;2.10;;
19903;SDS011;10114;50.970;4.962;2023-01-06T15:35:11;5.63;;;2.38;;
19903;SDS011;10114;50.970;4.962;2023-01-06T15:37:39;4.07;;;1.83;;
19903;SDS011;10114;50.970;4.962;2023-01-06T15:40:05;5.43;;;2.08;;
19903;SDS011;10114;50.970;4.962;2023-01-06T15:42:32;4.32;;;1.58;;
19903;SDS011;10114;50.970;4.962;2023-01-06T15:45:00;5.80;;;2.50;;
19903;SDS011;10114;50.970;4.962;2023-01-06T15:47:31;7.40;;;2.95;;
19903;SDS011;10114;50.970;4.962;2023-01-06T15:49:59;4.78;;;2.38;;
19903;SDS011;10114;50.970;4.962;2023-01-06T15:54:53;5.05;;;2.25;;
19903;SDS011;10114;50.970;4.962;2023-01-06T15:57:20;3.78;;;1.77;;
19903;SDS011;10114;50.970;4.962;2023-01-06T15:59:52;5.38;;;2.22;;
19903;SDS011;10114;50.970;4.962;2023-01-06T16:02:19;3.15;;;1.83;;
19903;SDS011;10114;50.970;4.962;2023-01-06T16:04:48;4.60;;;1.90;;
19903;SDS011;10114;50.970;4.962;2023-01-06T16:09:59;7.47;;;2.50;;
19903;SDS011;10114;50.970;4.962;2023-01-06T16:12:25;7.45;;;3.17;;
19903;SDS011;10114;50.970;4.962;2023-01-06T16:14:51;4.53;;;2.17;;
19903;SDS011;10114;50.970;4.962;2023-01-06T16:19:52;3.72;;;1.80;;
19903;SDS011;10114;50.970;4.962;2023-01-06T16:25:22;3.45;;;1.63;;
19903;SDS011;10114;50.970;4.962;2023-01-06T16:27:49;5.32;;;1.90;;
19903;SDS011;10114;50.970;4.962;2023-01-06T16:32:48;4.50;;;2.03;;
19903;SDS011;10114;50.970;4.962;2023-01-06T16:35:17;4.57;;;2.42;;
19903;SDS011;10114;50.970;4.962;2023-01-06T16:37:44;4.15;;;1.70;;
19903;SDS011;10114;50.970;4.962;2023-01-06T16:40:14;4.55;;;2.15;;
19903;SDS011;10114;50.970;4.962;2023-01-06T16:42:40;4.32;;;2.17;;
19903;SDS011;10114;50.970;4.962;2023-01-06T16:47:36;4.38;;;2.03;;
19903;SDS011;10114;50.970;4.962;2023-01-06T16:53:11;3.80;;;1.75;;
19903;SDS011;10114;50.970;4.962;2023-01-06T16:55:39;3.70;;;1.58;;
19903;SDS011;10114;50.970;4.962;2023-01-06T16:58:18;4.05;;;1.92;;
19903;SDS011;10114;50.970;4.962;2023-01-06T17:00:45;4.80;;;2.00;;
19903;SDS011;10114;50.970;4.962;2023-01-06T17:03:19;4.88;;;2.22;;
19903;SDS011;10114;50.970;4.962;2023-01-06T17:05:45;4.32;;;2.20;;
19903;SDS011;10114;50.970;4.962;2023-01-06T17:08:15;4.18;;;1.60;;
19903;SDS011;10114;50.970;4.962;2023-01-06T17:10:42;3.85;;;1.77;;
19903;SDS011;10114;50.970;4.962;2023-01-06T17:13:15;4.20;;;2.17;;
19903;SDS011;10114;50.970;4.962;2023-01-06T17:16:00;5.40;;;2.58;;
19903;SDS011;10114;50.970;4.962;2023-01-06T17:18:27;6.90;;;3.45;;
19903;SDS011;10114;50.970;4.962;2023-01-06T17:20:58;11.32;;;4.15;;
19903;SDS011;10114;50.970;4.962;2023-01-06T17:23:25;7.70;;;2.95;;
19903;SDS011;10114;50.970;4.962;2023-01-06T17:25:53;5.95;;;2.63;;
19903;SDS011;10114;50.970;4.962;2023-01-06T17:28:25;7.13;;;3.05;;
19903;SDS011;10114;50.970;4.962;2023-01-06T17:30:51;6.85;;;3.20;;
19903;SDS011;10114;50.970;4.962;2023-01-06T17:33:17;9.05;;;3.67;;
19903;SDS011;10114;50.970;4.962;2023-01-06T17:35:45;8.73;;;3.60;;
19903;SDS011;10114;50.970;4.962;2023-01-06T17:38:18;8.35;;;3.45;;
19903;SDS011;10114;50.970;4.962;2023-01-06T17:40:47;6.57;;;3.83;;
19903;SDS011;10114;50.970;4.962;2023-01-06T17:45:42;8.60;;;3.95;;
19903;SDS011;10114;50.970;4.962;2023-01-06T17:48:08;9.55;;;4.43;;
19903;SDS011;10114;50.970;4.962;2023-01-06T17:50:43;8.88;;;4.43;;
19903;SDS011;10114;50.970;4.962;2023-01-06T17:55:55;10.25;;;5.57;;
19903;SDS011;10114;50.970;4.962;2023-01-06T17:58:22;9.45;;;5.57;;
19903;SDS011;10114;50.970;4.962;2023-01-06T18:00:52;8.45;;;5.32;;